^^
Station Historical Data
Daily Summary for July 31, 2017 Units:  Both    English   Metric
« Previous Day
Next Day »
Daily Weekly Monthly Yearly Custom
  High: Low: Average:
Temperature: 70.0 °F /  21.1 °C 46.8 °F /  8.2 °C 57.2 °F /  14 °C
Dew Point: 38.1 °F /  3.4 °C 32.4 °F /  0.2 °C 34.9 °F /  1.6 °C
Humidity: 67% 28% 45%
Wind Speed: 15.0mph /  24.1km/h - 1.9mph /  3.1km/h
Wind Gust: 20.0mph /  32.2km/h - -
Wind- - SSW
Pressure: 30.34 in /  1027.3 hPa 30.22 in /  1023.2 hPa -
Precipitation: 0.00 in /  0 mm    
Historical Graphs
 
 
Tabular Data for July 31, 2017
Time Temperature Dew Point Pressure Wind Wind Speed Wind Gust Humidity Rainfall Rate (Hourly) solar Conditions
00:03 50.5 °F /  10.3 °C 33.6 °F /  0.9 °C 30.34in /  1027.3hPa Calm   1.0mph /  1.6km/h 52% 0.00in /  0mm 0.0 W/m2
00:09 50.4 °F /  10.2 °C 33.4 °F /  0.8 °C 30.33in /  1027hPa Calm   2.0mph /  3.2km/h 52% 0.00in /  0mm 0.0 W/m2
00:15 50.4 °F /  10.2 °C 33.8 °F /  1 °C 30.33in /  1027hPa Calm   2.0mph /  3.2km/h 53% 0.00in /  0mm 0.0 W/m2
00:21 50.2 °F /  10.1 °C 33.6 °F /  0.9 °C 30.33in /  1027hPa Calm   2.0mph /  3.2km/h 53% 0.00in /  0mm 0.0 W/m2
00:27 50.2 °F /  10.1 °C 33.6 °F /  0.9 °C 30.33in /  1027hPa ENE 0.9mph /  1.4km/h 1.0mph /  1.6km/h 53% 0.00in /  0mm 0.0 W/m2
00:33 49.8 °F /  9.9 °C 33.4 °F /  0.8 °C 30.33in /  1027hPa NE 2.0mph /  3.2km/h 3.0mph /  4.8km/h 53% 0.00in /  0mm 0.0 W/m2
00:39 49.8 °F /  9.9 °C 33.8 °F /  1 °C 30.33in /  1027hPa Calm   2.0mph /  3.2km/h 54% 0.00in /  0mm 0.0 W/m2
00:45 49.8 °F /  9.9 °C 33.8 °F /  1 °C 30.32in /  1026.6hPa ESE 0.9mph /  1.4km/h 1.0mph /  1.6km/h 54% 0.00in /  0mm 0.0 W/m2
00:51 49.8 °F /  9.9 °C 33.8 °F /  1 °C 30.32in /  1026.6hPa Calm   3.0mph /  4.8km/h 54% 0.00in /  0mm 0.0 W/m2
00:57 49.6 °F /  9.8 °C 33.6 °F /  0.9 °C 30.32in /  1026.6hPa Calm     54% 0.00in /  0mm 0.0 W/m2
01:03 49.6 °F /  9.8 °C 33.6 °F /  0.9 °C 30.31in /  1026.3hPa Calm   1.0mph /  1.6km/h 54% 0.00in /  0mm 0.0 W/m2
01:09 49.6 °F /  9.8 °C 34.2 °F /  1.2 °C 30.31in /  1026.3hPa NE 0.9mph /  1.4km/h 2.0mph /  3.2km/h 55% 0.00in /  0mm 0.0 W/m2
01:15 49.6 °F /  9.8 °C 34.2 °F /  1.2 °C 30.31in /  1026.3hPa Calm   1.0mph /  1.6km/h 55% 0.00in /  0mm 0.0 W/m2
01:21 49.5 °F /  9.7 °C 34.0 °F /  1.1 °C 30.31in /  1026.3hPa Calm     55% 0.00in /  0mm 0.0 W/m2
01:27 49.3 °F /  9.6 °C 33.8 °F /  1 °C 30.31in /  1026.3hPa Calm   1.0mph /  1.6km/h 55% 0.00in /  0mm 0.0 W/m2
01:33 49.1 °F /  9.5 °C 34.2 °F /  1.2 °C 30.31in /  1026.3hPa Calm     56% 0.00in /  0mm 0.0 W/m2
01:39 48.9 °F /  9.4 °C 34.0 °F /  1.1 °C 30.31in /  1026.3hPa Calm   2.0mph /  3.2km/h 56% 0.00in /  0mm 0.0 W/m2
01:45 48.7 °F /  9.3 °C 34.2 °F /  1.2 °C 30.31in /  1026.3hPa Calm   1.0mph /  1.6km/h 57% 0.00in /  0mm 0.0 W/m2
01:51 48.6 °F /  9.2 °C 34.0 °F /  1.1 °C 30.31in /  1026.3hPa Calm   1.0mph /  1.6km/h 57% 0.00in /  0mm 0.0 W/m2
01:57 48.6 °F /  9.2 °C 34.0 °F /  1.1 °C 30.31in /  1026.3hPa Calm   2.0mph /  3.2km/h 57% 0.00in /  0mm 0.0 W/m2
02:01 48.4 °F /  9.1 °C 34.3 °F /  1.3 °C 30.31in /  1026.3hPa Calm   1.0mph /  1.6km/h 58% 0.00in /  0mm 0.0 W/m2
02:07 48.4 °F /  9.1 °C 34.3 °F /  1.3 °C 30.31in /  1026.3hPa Calm   4.0mph /  6.4km/h 58% 0.00in /  0mm 0.0 W/m2
02:13 48.4 °F /  9.1 °C 34.3 °F /  1.3 °C 30.31in /  1026.3hPa Calm   3.0mph /  4.8km/h 58% 0.00in /  0mm 0.0 W/m2
02:19 48.4 °F /  9.1 °C 34.3 °F /  1.3 °C 30.31in /  1026.3hPa Calm   1.0mph /  1.6km/h 58% 0.00in /  0mm 0.0 W/m2
02:25 48.6 °F /  9.2 °C 34.5 °F /  1.4 °C 30.31in /  1026.3hPa Calm   2.0mph /  3.2km/h 58% 0.00in /  0mm 0.0 W/m2
02:31 48.7 °F /  9.3 °C 34.7 °F /  1.5 °C 30.31in /  1026.3hPa Calm   5.0mph /  8km/h 58% 0.00in /  0mm 0.0 W/m2
02:37 48.9 °F /  9.4 °C 34.9 °F /  1.6 °C 30.31in /  1026.3hPa Calm   2.0mph /  3.2km/h 58% 0.00in /  0mm 0.0 W/m2
02:43 48.9 °F /  9.4 °C 34.9 °F /  1.6 °C 30.31in /  1026.3hPa ENE 0.9mph /  1.4km/h 3.0mph /  4.8km/h 58% 0.00in /  0mm 0.0 W/m2
02:49 48.9 °F /  9.4 °C 34.9 °F /  1.6 °C 30.31in /  1026.3hPa Calm   2.0mph /  3.2km/h 58% 0.00in /  0mm 0.0 W/m2
02:55 48.9 °F /  9.4 °C 34.9 °F /  1.6 °C 30.31in /  1026.3hPa NE 0.9mph /  1.4km/h 4.0mph /  6.4km/h 58% 0.00in /  0mm 0.0 W/m2
03:01 48.9 °F /  9.4 °C 34.9 °F /  1.6 °C 30.31in /  1026.3hPa Calm   2.0mph /  3.2km/h 58% 0.00in /  0mm 0.0 W/m2
03:07 48.9 °F /  9.4 °C 34.9 °F /  1.6 °C 30.31in /  1026.3hPa Calm   2.0mph /  3.2km/h 58% 0.00in /  0mm 0.0 W/m2
03:13 48.7 °F /  9.3 °C 34.7 °F /  1.5 °C 30.31in /  1026.3hPa Calm   2.0mph /  3.2km/h 58% 0.00in /  0mm 0.0 W/m2
03:19 48.7 °F /  9.3 °C 34.7 °F /  1.5 °C 30.31in /  1026.3hPa Calm   4.0mph /  6.4km/h 58% 0.00in /  0mm 0.0 W/m2
03:25 48.7 °F /  9.3 °C 34.7 °F /  1.5 °C 30.30in /  1026hPa ENE 2.0mph /  3.2km/h 6.0mph /  9.7km/h 58% 0.00in /  0mm 0.0 W/m2
03:31 48.7 °F /  9.3 °C 34.7 °F /  1.5 °C 30.30in /  1026hPa Calm   2.0mph /  3.2km/h 58% 0.00in /  0mm 0.0 W/m2
03:38 48.9 °F /  9.4 °C 34.9 °F /  1.6 °C 30.31in /  1026.3hPa Calm   3.0mph /  4.8km/h 58% 0.00in /  0mm 0.0 W/m2
03:44 48.9 °F /  9.4 °C 34.9 °F /  1.6 °C 30.30in /  1026hPa Calm   3.0mph /  4.8km/h 58% 0.00in /  0mm 0.0 W/m2
03:50 48.9 °F /  9.4 °C 34.9 °F /  1.6 °C 30.30in /  1026hPa ENE 4.0mph /  6.4km/h 4.0mph /  6.4km/h 58% 0.00in /  0mm 0.0 W/m2
03:56 48.9 °F /  9.4 °C 34.9 °F /  1.6 °C 30.30in /  1026hPa ENE 0.9mph /  1.4km/h 1.0mph /  1.6km/h 58% 0.00in /  0mm 0.0 W/m2
04:02 48.9 °F /  9.4 °C 34.9 °F /  1.6 °C 30.30in /  1026hPa Calm   4.0mph /  6.4km/h 58% 0.00in /  0mm 0.0 W/m2
04:08 48.9 °F /  9.4 °C 34.9 °F /  1.6 °C 30.30in /  1026hPa Calm   3.0mph /  4.8km/h 58% 0.00in /  0mm 0.0 W/m2
04:14 48.9 °F /  9.4 °C 34.9 °F /  1.6 °C 30.30in /  1026hPa NE 0.9mph /  1.4km/h 4.0mph /  6.4km/h 58% 0.00in /  0mm 0.0 W/m2
04:20 48.9 °F /  9.4 °C 34.9 °F /  1.6 °C 30.30in /  1026hPa ENE 2.0mph /  3.2km/h 5.0mph /  8km/h 58% 0.00in /  0mm 0.0 W/m2
04:26 48.7 °F /  9.3 °C 34.7 °F /  1.5 °C 30.30in /  1026hPa Calm   5.0mph /  8km/h 58% 0.00in /  0mm 0.0 W/m2
04:32 48.7 °F /  9.3 °C 34.7 °F /  1.5 °C 30.30in /  1026hPa Calm   2.0mph /  3.2km/h 58% 0.00in /  0mm 0.0 W/m2
04:38 48.6 °F /  9.2 °C 34.9 °F /  1.6 °C 30.30in /  1026hPa Calm   3.0mph /  4.8km/h 59% 0.00in /  0mm 0.0 W/m2
04:44 48.4 °F /  9.1 °C 34.7 °F /  1.5 °C 30.30in /  1026hPa Calm   1.0mph /  1.6km/h 59% 0.00in /  0mm 0.0 W/m2
04:50 48.4 °F /  9.1 °C 34.7 °F /  1.5 °C 30.30in /  1026hPa ENE 2.0mph /  3.2km/h 2.0mph /  3.2km/h 59% 0.00in /  0mm 0.0 W/m2
04:56 48.0 °F /  8.9 °C 34.9 °F /  1.6 °C 30.30in /  1026hPa East 0.9mph /  1.4km/h 2.0mph /  3.2km/h 60% 0.00in /  0mm 0.0 W/m2
05:02 47.8 °F /  8.8 °C 34.7 °F /  1.5 °C 30.30in /  1026hPa ENE 0.9mph /  1.4km/h 2.0mph /  3.2km/h 60% 0.00in /  0mm 0.0 W/m2
05:08 47.7 °F /  8.7 °C 34.9 °F /  1.6 °C 30.31in /  1026.3hPa Calm   2.0mph /  3.2km/h 61% 0.00in /  0mm 0.0 W/m2
05:10 47.7 °F /  8.7 °C 34.9 °F /  1.6 °C 30.31in /  1026.3hPa ENE 0.9mph /  1.4km/h 1.0mph /  1.6km/h 61% 0.00in /  0mm 0.0 W/m2
05:15 47.5 °F /  8.6 °C 34.7 °F /  1.5 °C 30.31in /  1026.3hPa Calm   2.0mph /  3.2km/h 61% 0.00in /  0mm 0.0 W/m2
05:25 47.5 °F /  8.6 °C 35.1 °F /  1.7 °C 30.31in /  1026.3hPa Calm   2.0mph /  3.2km/h 62% 0.00in /  0mm 0.0 W/m2
05:33 47.5 °F /  8.6 °C 35.1 °F /  1.7 °C 30.31in /  1026.3hPa ENE 0.9mph /  1.4km/h 4.0mph /  6.4km/h 62% 0.00in /  0mm 0.0 W/m2
05:39 47.5 °F /  8.6 °C 35.1 °F /  1.7 °C 30.32in /  1026.6hPa ENE 2.0mph /  3.2km/h 2.0mph /  3.2km/h 62% 0.00in /  0mm 0.0 W/m2
05:44 47.3 °F /  8.5 °C 34.9 °F /  1.6 °C 30.32in /  1026.6hPa NE 0.9mph /  1.4km/h 2.0mph /  3.2km/h 62% 0.00in /  0mm 0.0 W/m2
05:55 47.1 °F /  8.4 °C 35.2 °F /  1.8 °C 30.32in /  1026.6hPa ENE 0.9mph /  1.4km/h 2.0mph /  3.2km/h 63% 0.00in /  0mm 0.0 W/m2
06:00 46.9 °F /  8.3 °C 35.1 °F /  1.7 °C 30.32in /  1026.6hPa Calm   1.0mph /  1.6km/h 63% 0.00in /  0mm 0.0 W/m2
06:07 46.9 °F /  8.3 °C 35.1 °F /  1.7 °C 30.32in /  1026.6hPa Calm   3.0mph /  4.8km/h 63% 0.00in /  0mm 0.0 W/m2
06:13 46.9 °F /  8.3 °C 35.1 °F /  1.7 °C 30.32in /  1026.6hPa Calm   2.0mph /  3.2km/h 63% 0.00in /  0mm 0.0 W/m2
06:19 46.8 °F /  8.2 °C 35.2 °F /  1.8 °C 30.33in /  1027hPa Calm   1.0mph /  1.6km/h 64% 0.00in /  0mm 0.0 W/m2
06:25 46.8 °F /  8.2 °C 35.2 °F /  1.8 °C 30.33in /  1027hPa ENE 2.0mph /  3.2km/h 2.0mph /  3.2km/h 64% 0.00in /  0mm 0.0 W/m2
06:31 46.8 °F /  8.2 °C 35.2 °F /  1.8 °C 30.33in /  1027hPa Calm   3.0mph /  4.8km/h 64% 0.00in /  0mm 5.0 W/m2
06:37 46.8 °F /  8.2 °C 35.2 °F /  1.8 °C 30.33in /  1027hPa Calm   2.0mph /  3.2km/h 64% 0.00in /  0mm 7.0 W/m2
06:45 46.8 °F /  8.2 °C 35.6 °F /  2 °C 30.33in /  1027hPa Calm   1.0mph /  1.6km/h 65% 0.00in /  0mm 11.0 W/m2
06:51 46.8 °F /  8.2 °C 35.6 °F /  2 °C 30.33in /  1027hPa NE 0.9mph /  1.4km/h 3.0mph /  4.8km/h 65% 0.00in /  0mm 12.0 W/m2
06:58 46.8 °F /  8.2 °C 35.6 °F /  2 °C 30.33in /  1027hPa Calm     65% 0.00in /  0mm 14.0 W/m2
07:04 46.8 °F /  8.2 °C 36.0 °F /  2.2 °C 30.33in /  1027hPa Calm   1.0mph /  1.6km/h 66% 0.00in /  0mm 14.0 W/m2
07:10 46.8 °F /  8.2 °C 36.0 °F /  2.2 °C 30.33in /  1027hPa Calm   1.0mph /  1.6km/h 66% 0.00in /  0mm 16.0 W/m2
07:16 46.9 °F /  8.3 °C 36.5 °F /  2.5 °C 30.33in /  1027hPa Calm     67% 0.00in /  0mm 18.0 W/m2
07:22 47.3 °F /  8.5 °C 36.9 °F /  2.7 °C 30.34in /  1027.3hPa ENE 2.0mph /  3.2km/h 2.0mph /  3.2km/h 67% 0.00in /  0mm 19.0 W/m2
07:28 48.0 °F /  8.9 °C 36.9 °F /  2.7 °C 30.34in /  1027.3hPa NNE 2.0mph /  3.2km/h 6.0mph /  9.7km/h 65% 0.00in /  0mm 19.0 W/m2
07:34 49.6 °F /  9.8 °C 37.2 °F /  2.9 °C 30.34in /  1027.3hPa Calm   8.0mph /  12.9km/h 62% 0.00in /  0mm 21.0 W/m2
07:40 51.1 °F /  10.6 °C 37.8 °F /  3.2 °C 30.34in /  1027.3hPa ENE 6.0mph /  9.7km/h 7.0mph /  11.3km/h 60% 0.00in /  0mm 23.0 W/m2
07:46 52.5 °F /  11.4 °C 37.8 °F /  3.2 °C 30.34in /  1027.3hPa NNE 2.9mph /  4.7km/h 6.0mph /  9.7km/h 57% 0.00in /  0mm 23.0 W/m2
07:52 53.4 °F /  11.9 °C 37.6 °F /  3.1 °C 30.34in /  1027.3hPa Calm   6.0mph /  9.7km/h 55% 0.00in /  0mm 25.0 W/m2
07:59 54.3 °F /  12.4 °C 37.6 °F /  3.1 °C 30.34in /  1027.3hPa North 0.9mph /  1.4km/h 9.0mph /  14.5km/h 53% 0.00in /  0mm 25.0 W/m2
08:01 54.7 °F /  12.6 °C 37.9 °F /  3.3 °C 30.34in /  1027.3hPa NE 0.9mph /  1.4km/h 6.0mph /  9.7km/h 53% 0.00in /  0mm 25.0 W/m2
08:07 55.2 °F /  12.9 °C 37.9 °F /  3.3 °C 30.34in /  1027.3hPa NE 6.0mph /  9.7km/h 9.0mph /  14.5km/h 52% 0.00in /  0mm 26.0 W/m2
08:13 55.8 °F /  13.2 °C 37.9 °F /  3.3 °C 30.34in /  1027.3hPa North 2.9mph /  4.7km/h 7.0mph /  11.3km/h 51% 0.00in /  0mm 26.0 W/m2
08:19 56.3 °F /  13.5 °C 37.9 °F /  3.3 °C 30.34in /  1027.3hPa NE 2.9mph /  4.7km/h 5.0mph /  8km/h 50% 0.00in /  0mm 37.0 W/m2
08:25 57.0 °F /  13.9 °C 38.1 °F /  3.4 °C 30.34in /  1027.3hPa ENE 4.0mph /  6.4km/h 5.0mph /  8km/h 49% 0.00in /  0mm 381.0 W/m2
08:31 58.3 °F /  14.6 °C 38.1 °F /  3.4 °C 30.34in /  1027.3hPa NNW 2.9mph /  4.7km/h 3.0mph /  4.8km/h 47% 0.00in /  0mm 401.0 W/m2
08:37 59.5 °F /  15.3 °C 38.1 °F /  3.4 °C 30.34in /  1027.3hPa NNW 6.0mph /  9.7km/h 7.0mph /  11.3km/h 45% 0.00in /  0mm 417.0 W/m2
08:43 60.3 °F /  15.7 °C 37.8 °F /  3.2 °C 30.34in /  1027.3hPa NW 2.0mph /  3.2km/h 8.0mph /  12.9km/h 43% 0.00in /  0mm 436.0 W/m2
08:49 60.8 °F /  16 °C 37.6 °F /  3.1 °C 30.34in /  1027.3hPa North 2.9mph /  4.7km/h 11.0mph /  17.7km/h 42% 0.00in /  0mm 459.0 W/m2
08:56 61.2 °F /  16.2 °C 37.2 °F /  2.9 °C 30.34in /  1027.3hPa NNW 6.9mph /  11.1km/h 12.0mph /  19.3km/h 41% 0.00in /  0mm 478.0 W/m2
09:02 61.3 °F /  16.3 °C 37.4 °F /  3 °C 30.34in /  1027.3hPa NNE 6.0mph /  9.7km/h 14.0mph /  22.5km/h 41% 0.00in /  0mm 494.0 W/m2
09:08 61.5 °F /  16.4 °C 37.0 °F /  2.8 °C 30.34in /  1027.3hPa NNE 6.9mph /  11.1km/h 8.0mph /  12.9km/h 40% 0.00in /  0mm 513.0 W/m2
09:14 61.9 °F /  16.6 °C 37.2 °F /  2.9 °C 30.34in /  1027.3hPa North 11.0mph /  17.7km/h 11.0mph /  17.7km/h 40% 0.00in /  0mm 529.0 W/m2
09:20 62.2 °F /  16.8 °C 37.0 °F /  2.8 °C 30.34in /  1027.3hPa NE 6.0mph /  9.7km/h 10.0mph /  16.1km/h 39% 0.00in /  0mm 547.0 W/m2
09:26 62.8 °F /  17.1 °C 36.9 °F /  2.7 °C 30.33in /  1027hPa WNW 4.9mph /  7.9km/h 11.0mph /  17.7km/h 38% 0.00in /  0mm 559.0 W/m2
09:32 63.0 °F /  17.2 °C 36.3 °F /  2.4 °C 30.34in /  1027.3hPa NNW 6.0mph /  9.7km/h 13.0mph /  20.9km/h 37% 0.00in /  0mm 571.0 W/m2
09:39 63.1 °F /  17.3 °C 37.0 °F /  2.8 °C 30.33in /  1027hPa North 4.0mph /  6.4km/h 7.0mph /  11.3km/h 38% 0.00in /  0mm 582.0 W/m2
09:45 63.3 °F /  17.4 °C 36.7 °F /  2.6 °C 30.34in /  1027.3hPa NNW 8.9mph /  14.3km/h 12.0mph /  19.3km/h 37% 0.00in /  0mm 601.0 W/m2
09:51 63.3 °F /  17.4 °C 36.7 °F /  2.6 °C 30.34in /  1027.3hPa WNW 6.9mph /  11.1km/h 19.0mph /  30.6km/h 37% 0.00in /  0mm 619.0 W/m2
09:57 63.7 °F /  17.6 °C 36.9 °F /  2.7 °C 30.33in /  1027hPa Calm   6.0mph /  9.7km/h 37% 0.00in /  0mm 566.0 W/m2
10:03 63.7 °F /  17.6 °C 36.9 °F /  2.7 °C 30.33in /  1027hPa West 8.1mph /  13km/h 8.1mph /  13km/h 37% 0.00in /  0mm 585.0 W/m2
10:09 63.9 °F /  17.7 °C 37.0 °F /  2.8 °C 30.33in /  1027hPa NNW 4.9mph /  7.9km/h 10.0mph /  16.1km/h 37% 0.00in /  0mm 649.0 W/m2
10:16 64.2 °F /  17.9 °C 36.7 °F /  2.6 °C 30.33in /  1027hPa NW 2.0mph /  3.2km/h 12.0mph /  19.3km/h 36% 0.00in /  0mm 663.0 W/m2
10:22 64.6 °F /  18.1 °C 37.0 °F /  2.8 °C 30.33in /  1027hPa North 2.9mph /  4.7km/h 10.0mph /  16.1km/h 36% 0.00in /  0mm 671.0 W/m2
10:28 64.9 °F /  18.3 °C 36.7 °F /  2.6 °C 30.33in /  1027hPa North 0.9mph /  1.4km/h 8.0mph /  12.9km/h 35% 0.00in /  0mm 686.0 W/m2
10:34 65.7 °F /  18.7 °C 37.2 °F /  2.9 °C 30.33in /  1027hPa North 6.9mph /  11.1km/h 7.0mph /  11.3km/h 35% 0.00in /  0mm 693.0 W/m2
10:40 66.0 °F /  18.9 °C 36.9 °F /  2.7 °C 30.32in /  1026.6hPa NNW 2.9mph /  4.7km/h 9.0mph /  14.5km/h 34% 0.00in /  0mm 701.0 W/m2
10:46 66.0 °F /  18.9 °C 36.9 °F /  2.7 °C 30.32in /  1026.6hPa NNE 2.0mph /  3.2km/h 7.0mph /  11.3km/h 34% 0.00in /  0mm 712.0 W/m2
10:52 66.4 °F /  19.1 °C 36.3 °F /  2.4 °C 30.31in /  1026.3hPa North 6.9mph /  11.1km/h 11.0mph /  17.7km/h 33% 0.00in /  0mm 717.0 W/m2
10:58 66.2 °F /  19 °C 36.3 °F /  2.4 °C 30.31in /  1026.3hPa NNW 2.0mph /  3.2km/h 8.0mph /  12.9km/h 33% 0.00in /  0mm 724.0 W/m2
11:05 66.4 °F /  19.1 °C 36.3 °F /  2.4 °C 30.31in /  1026.3hPa NNW 6.9mph /  11.1km/h 9.0mph /  14.5km/h 33% 0.00in /  0mm 728.0 W/m2
11:11 66.4 °F /  19.1 °C 36.3 °F /  2.4 °C 30.31in /  1026.3hPa NNW 4.0mph /  6.4km/h 12.0mph /  19.3km/h 33% 0.00in /  0mm 737.0 W/m2
11:17 66.4 °F /  19.1 °C 36.3 °F /  2.4 °C 30.31in /  1026.3hPa NW 8.9mph /  14.3km/h 10.0mph /  16.1km/h 33% 0.00in /  0mm 740.0 W/m2
11:23 66.6 °F /  19.2 °C 36.5 °F /  2.5 °C 30.30in /  1026hPa SW 2.0mph /  3.2km/h 8.0mph /  12.9km/h 33% 0.00in /  0mm 745.0 W/m2
11:29 66.7 °F /  19.3 °C 37.4 °F /  3 °C 30.30in /  1026hPa North 2.0mph /  3.2km/h 7.0mph /  11.3km/h 34% 0.00in /  0mm 745.0 W/m2
11:35 66.9 °F /  19.4 °C 36.9 °F /  2.7 °C 30.29in /  1025.6hPa NNW 4.9mph /  7.9km/h 20.0mph /  32.2km/h 33% 0.00in /  0mm 744.0 W/m2
11:41 67.3 °F /  19.6 °C 37.2 °F /  2.9 °C 30.29in /  1025.6hPa NNE 2.9mph /  4.7km/h 9.0mph /  14.5km/h 33% 0.00in /  0mm 751.0 W/m2
11:47 67.3 °F /  19.6 °C 36.5 °F /  2.5 °C 30.29in /  1025.6hPa NNE 4.9mph /  7.9km/h 14.0mph /  22.5km/h 32% 0.00in /  0mm 738.0 W/m2
11:54 67.3 °F /  19.6 °C 36.5 °F /  2.5 °C 30.28in /  1025.3hPa NW 4.9mph /  7.9km/h 10.0mph /  16.1km/h 32% 0.00in /  0mm 735.0 W/m2
12:00 67.6 °F /  19.8 °C 36.7 °F /  2.6 °C 30.28in /  1025.3hPa NNW 2.0mph /  3.2km/h 10.0mph /  16.1km/h 32% 0.00in /  0mm 733.0 W/m2
12:06 68.0 °F /  20 °C 36.3 °F /  2.4 °C 30.28in /  1025.3hPa North 6.9mph /  11.1km/h 12.0mph /  19.3km/h 31% 0.00in /  0mm 747.0 W/m2
12:12 68.4 °F /  20.2 °C 36.5 °F /  2.5 °C 30.27in /  1024.9hPa WNW 2.9mph /  4.7km/h 9.0mph /  14.5km/h 31% 0.00in /  0mm 751.0 W/m2
12:18 68.4 °F /  20.2 °C 36.5 °F /  2.5 °C 30.26in /  1024.6hPa NNE 6.9mph /  11.1km/h 10.0mph /  16.1km/h 31% 0.00in /  0mm 742.0 W/m2
12:24 68.4 °F /  20.2 °C 36.5 °F /  2.5 °C 30.26in /  1024.6hPa ENE 0.9mph /  1.4km/h 13.0mph /  20.9km/h 31% 0.00in /  0mm 742.0 W/m2
12:30 68.4 °F /  20.2 °C 36.5 °F /  2.5 °C 30.25in /  1024.3hPa Calm   9.0mph /  14.5km/h 31% 0.00in /  0mm 737.0 W/m2
12:37 68.7 °F /  20.4 °C 36.0 °F /  2.2 °C 30.25in /  1024.3hPa NNW 6.0mph /  9.7km/h 11.0mph /  17.7km/h 30% 0.00in /  0mm 737.0 W/m2
12:43 68.9 °F /  20.5 °C 37.0 °F /  2.8 °C 30.24in /  1023.9hPa NW 0.9mph /  1.4km/h 12.0mph /  19.3km/h 31% 0.00in /  0mm 728.0 W/m2
12:49 69.3 °F /  20.7 °C 36.5 °F /  2.5 °C 30.24in /  1023.9hPa NNW 12.1mph /  19.5km/h 12.1mph /  19.5km/h 30% 0.00in /  0mm 724.0 W/m2
12:55 69.4 °F /  20.8 °C 35.8 °F /  2.1 °C 30.24in /  1023.9hPa NNW 15.0mph /  24.1km/h 17.0mph /  27.4km/h 29% 0.00in /  0mm 719.0 W/m2
13:01 69.3 °F /  20.7 °C 35.6 °F /  2 °C 30.23in /  1023.6hPa North 4.9mph /  7.9km/h 12.0mph /  19.3km/h 29% 0.00in /  0mm 708.0 W/m2
13:08 69.4 °F /  20.8 °C 35.8 °F /  2.1 °C 30.23in /  1023.6hPa NW 0.9mph /  1.4km/h 5.0mph /  8km/h 29% 0.00in /  0mm 698.0 W/m2
13:14 69.6 °F /  20.9 °C 36.0 °F /  2.2 °C 30.23in /  1023.6hPa North 4.0mph /  6.4km/h 8.0mph /  12.9km/h 29% 0.00in /  0mm 689.0 W/m2
13:20 69.6 °F /  20.9 °C 36.0 °F /  2.2 °C 30.23in /  1023.6hPa WNW 2.0mph /  3.2km/h 12.0mph /  19.3km/h 29% 0.00in /  0mm 686.0 W/m2
13:26 70.0 °F /  21.1 °C 35.4 °F /  1.9 °C 30.23in /  1023.6hPa NNW 2.0mph /  3.2km/h 9.0mph /  14.5km/h 28% 0.00in /  0mm 671.0 W/m2
13:32 69.6 °F /  20.9 °C 35.1 °F /  1.7 °C 30.23in /  1023.6hPa North 2.9mph /  4.7km/h 10.0mph /  16.1km/h 28% 0.00in /  0mm 657.0 W/m2
13:38 69.6 °F /  20.9 °C 35.1 °F /  1.7 °C 30.23in /  1023.6hPa NNE 8.1mph /  13km/h 10.0mph /  16.1km/h 28% 0.00in /  0mm 643.0 W/m2
13:44 69.3 °F /  20.7 °C 34.7 °F /  1.5 °C 30.23in /  1023.6hPa North 11.0mph /  17.7km/h 12.0mph /  19.3km/h 28% 0.00in /  0mm 638.0 W/m2
13:50 69.1 °F /  20.6 °C 35.4 °F /  1.9 °C 30.22in /  1023.2hPa NW 8.9mph /  14.3km/h 9.0mph /  14.5km/h 29% 0.00in /  0mm 626.0 W/m2
13:54 69.4 °F /  20.8 °C 34.9 °F /  1.6 °C 30.22in /  1023.2hPa SW 0.9mph /  1.4km/h 9.0mph /  14.5km/h 28% 0.00in /  0mm 617.0 W/m2
14:00 70.0 °F /  21.1 °C 35.4 °F /  1.9 °C 30.23in /  1023.6hPa North 13.0mph /  20.9km/h 13.0mph /  20.9km/h 28% 0.00in /  0mm 598.0 W/m2
14:06 69.6 °F /  20.9 °C 35.1 °F /  1.7 °C 30.22in /  1023.2hPa NW 8.9mph /  14.3km/h 15.0mph /  24.1km/h 28% 0.00in /  0mm 584.0 W/m2
14:12 69.4 °F /  20.8 °C 34.9 °F /  1.6 °C 30.23in /  1023.6hPa SE 2.9mph /  4.7km/h 11.0mph /  17.7km/h 28% 0.00in /  0mm 568.0 W/m2
14:18 69.4 °F /  20.8 °C 34.9 °F /  1.6 °C 30.22in /  1023.2hPa NNE 6.9mph /  11.1km/h 10.0mph /  16.1km/h 28% 0.00in /  0mm 559.0 W/m2
14:25 69.4 °F /  20.8 °C 35.8 °F /  2.1 °C 30.22in /  1023.2hPa Calm   8.0mph /  12.9km/h 29% 0.00in /  0mm 540.0 W/m2
14:31 70.0 °F /  21.1 °C 35.4 °F /  1.9 °C 30.22in /  1023.2hPa North 6.9mph /  11.1km/h 11.0mph /  17.7km/h 28% 0.00in /  0mm 531.0 W/m2
14:37 70.0 °F /  21.1 °C 35.4 °F /  1.9 °C 30.22in /  1023.2hPa Calm   5.0mph /  8km/h 28% 0.00in /  0mm 513.0 W/m2
14:43 70.0 °F /  21.1 °C 35.4 °F /  1.9 °C 30.22in /  1023.2hPa NNW 6.9mph /  11.1km/h 8.0mph /  12.9km/h 28% 0.00in /  0mm 499.0 W/m2
14:49 70.0 °F /  21.1 °C 35.4 °F /  1.9 °C 30.23in /  1023.6hPa NNE 6.9mph /  11.1km/h 12.0mph /  19.3km/h 28% 0.00in /  0mm 478.0 W/m2
14:55 69.6 °F /  20.9 °C 35.1 °F /  1.7 °C 30.23in /  1023.6hPa NNW 6.9mph /  11.1km/h 8.0mph /  12.9km/h 28% 0.00in /  0mm 464.0 W/m2
15:01 69.8 °F /  21 °C 35.2 °F /  1.8 °C 30.22in /  1023.2hPa NNW 0.9mph /  1.4km/h 6.0mph /  9.7km/h 28% 0.00in /  0mm 446.0 W/m2
15:07 69.8 °F /  21 °C 35.2 °F /  1.8 °C 30.23in /  1023.6hPa WNW 8.1mph /  13km/h 11.0mph /  17.7km/h 28% 0.00in /  0mm 425.0 W/m2
15:13 69.6 °F /  20.9 °C 35.1 °F /  1.7 °C 30.23in /  1023.6hPa NW 0.9mph /  1.4km/h 12.0mph /  19.3km/h 28% 0.00in /  0mm 413.0 W/m2
15:20 69.3 °F /  20.7 °C 34.7 °F /  1.5 °C 30.23in /  1023.6hPa North 8.9mph /  14.3km/h 11.0mph /  17.7km/h 28% 0.00in /  0mm 387.0 W/m2
15:26 69.1 °F /  20.6 °C 34.5 °F /  1.4 °C 30.23in /  1023.6hPa North 2.9mph /  4.7km/h 10.0mph /  16.1km/h 28% 0.00in /  0mm 369.0 W/m2
15:32 69.1 °F /  20.6 °C 34.5 °F /  1.4 °C 30.23in /  1023.6hPa North 4.9mph /  7.9km/h 7.0mph /  11.3km/h 28% 0.00in /  0mm 352.0 W/m2
15:38 68.7 °F /  20.4 °C 34.3 °F /  1.3 °C 30.23in /  1023.6hPa NNW 4.0mph /  6.4km/h 5.0mph /  8km/h 28% 0.00in /  0mm 327.0 W/m2
15:44 68.7 °F /  20.4 °C 35.2 °F /  1.8 °C 30.24in /  1023.9hPa North 4.9mph /  7.9km/h 10.0mph /  16.1km/h 29% 0.00in /  0mm 309.0 W/m2
15:50 68.7 °F /  20.4 °C 34.3 °F /  1.3 °C 30.24in /  1023.9hPa NNW 4.9mph /  7.9km/h 11.0mph /  17.7km/h 28% 0.00in /  0mm 44.0 W/m2
15:56 68.4 °F /  20.2 °C 34.9 °F /  1.6 °C 30.24in /  1023.9hPa NNW 4.0mph /  6.4km/h 14.0mph /  22.5km/h 29% 0.00in /  0mm 39.0 W/m2
16:02 68.2 °F /  20.1 °C 33.8 °F /  1 °C 30.24in /  1023.9hPa NNW 4.0mph /  6.4km/h 12.0mph /  19.3km/h 28% 0.00in /  0mm 35.0 W/m2
16:09 67.8 °F /  19.9 °C 34.3 °F /  1.3 °C 30.24in /  1023.9hPa WNW 2.9mph /  4.7km/h 5.0mph /  8km/h 29% 0.00in /  0mm 33.0 W/m2
16:15 67.6 °F /  19.8 °C 34.2 °F /  1.2 °C 30.25in /  1024.3hPa North 2.9mph /  4.7km/h 6.0mph /  9.7km/h 29% 0.00in /  0mm 32.0 W/m2
16:21 67.5 °F /  19.7 °C 34.2 °F /  1.2 °C 30.25in /  1024.3hPa NNW 4.9mph /  7.9km/h 10.0mph /  16.1km/h 29% 0.00in /  0mm 39.0 W/m2
16:27 67.1 °F /  19.5 °C 34.7 °F /  1.5 °C 30.25in /  1024.3hPa North 6.0mph /  9.7km/h 7.0mph /  11.3km/h 30% 0.00in /  0mm 49.0 W/m2
16:33 66.7 °F /  19.3 °C 34.3 °F /  1.3 °C 30.25in /  1024.3hPa WNW 0.9mph /  1.4km/h 7.0mph /  11.3km/h 30% 0.00in /  0mm 30.0 W/m2
16:39 66.6 °F /  19.2 °C 34.2 °F /  1.2 °C 30.25in /  1024.3hPa NW 4.0mph /  6.4km/h 7.0mph /  11.3km/h 30% 0.00in /  0mm 21.0 W/m2
16:51 66.2 °F /  19 °C 33.8 °F /  1 °C 30.25in /  1024.3hPa West 0.9mph /  1.4km/h 7.0mph /  11.3km/h 30% 0.00in /  0mm 25.0 W/m2
16:57 66.0 °F /  18.9 °C 34.5 °F /  1.4 °C 30.26in /  1024.6hPa Calm   3.0mph /  4.8km/h 31% 0.00in /  0mm 28.0 W/m2
17:04 65.8 °F /  18.8 °C 34.3 °F /  1.3 °C 30.26in /  1024.6hPa Calm   3.0mph /  4.8km/h 31% 0.00in /  0mm 18.0 W/m2
17:10 65.5 °F /  18.6 °C 34.0 °F /  1.1 °C 30.26in /  1024.6hPa Calm   7.0mph /  11.3km/h 31% 0.00in /  0mm 12.0 W/m2
17:16 65.1 °F /  18.4 °C 33.8 °F /  1 °C 30.26in /  1024.6hPa Calm   6.0mph /  9.7km/h 31% 0.00in /  0mm 11.0 W/m2
17:22 64.9 °F /  18.3 °C 34.3 °F /  1.3 °C 30.26in /  1024.6hPa NW 0.9mph /  1.4km/h 2.0mph /  3.2km/h 32% 0.00in /  0mm 7.0 W/m2
17:28 64.6 °F /  18.1 °C 34.9 °F /  1.6 °C 30.26in /  1024.6hPa NW 0.9mph /  1.4km/h 6.0mph /  9.7km/h 33% 0.00in /  0mm 0.0 W/m2
17:34 64.2 °F /  17.9 °C 34.5 °F /  1.4 °C 30.26in /  1024.6hPa Calm   1.0mph /  1.6km/h 33% 0.00in /  0mm 0.0 W/m2
17:40 64.0 °F /  17.8 °C 34.3 °F /  1.3 °C 30.27in /  1024.9hPa Calm   2.0mph /  3.2km/h 33% 0.00in /  0mm 0.0 W/m2
17:47 63.7 °F /  17.6 °C 34.0 °F /  1.1 °C 30.27in /  1024.9hPa Calm   2.0mph /  3.2km/h 33% 0.00in /  0mm 0.0 W/m2
17:53 63.3 °F /  17.4 °C 34.5 °F /  1.4 °C 30.26in /  1024.6hPa Calm   1.0mph /  1.6km/h 34% 0.00in /  0mm 0.0 W/m2
17:59 63.0 °F /  17.2 °C 34.2 °F /  1.2 °C 30.27in /  1024.9hPa Calm     34% 0.00in /  0mm 0.0 W/m2
18:05 62.2 °F /  16.8 °C 34.2 °F /  1.2 °C 30.27in /  1024.9hPa Calm   1.0mph /  1.6km/h 35% 0.00in /  0mm 0.0 W/m2
18:11 61.9 °F /  16.6 °C 34.7 °F /  1.5 °C 30.27in /  1024.9hPa Calm   1.0mph /  1.6km/h 36% 0.00in /  0mm 0.0 W/m2
18:17 61.3 °F /  16.3 °C 34.2 °F /  1.2 °C 30.27in /  1024.9hPa Calm   1.0mph /  1.6km/h 36% 0.00in /  0mm 0.0 W/m2
18:23 61.2 °F /  16.2 °C 34.0 °F /  1.1 °C 30.27in /  1024.9hPa Calm   1.0mph /  1.6km/h 36% 0.00in /  0mm 0.0 W/m2
18:30 61.0 °F /  16.1 °C 34.5 °F /  1.4 °C 30.28in /  1025.3hPa Calm     37% 0.00in /  0mm 0.0 W/m2
18:36 60.4 °F /  15.8 °C 34.0 °F /  1.1 °C 30.27in /  1024.9hPa Calm     37% 0.00in /  0mm 0.0 W/m2
18:42 60.1 °F /  15.6 °C 33.8 °F /  1 °C 30.27in /  1024.9hPa Calm     37% 0.00in /  0mm 0.0 W/m2
18:48 59.4 °F /  15.2 °C 33.8 °F /  1 °C 30.28in /  1025.3hPa Calm     38% 0.00in /  0mm 0.0 W/m2
18:54 58.8 °F /  14.9 °C 33.3 °F /  0.7 °C 30.27in /  1024.9hPa Calm     38% 0.00in /  0mm 0.0 W/m2
19:01 58.5 °F /  14.7 °C 33.6 °F /  0.9 °C 30.28in /  1025.3hPa Calm   1.0mph /  1.6km/h 39% 0.00in /  0mm 0.0 W/m2
19:06 57.9 °F /  14.4 °C 33.1 °F /  0.6 °C 30.28in /  1025.3hPa Calm     39% 0.00in /  0mm 0.0 W/m2
19:13 57.6 °F /  14.2 °C 33.4 °F /  0.8 °C 30.28in /  1025.3hPa Calm     40% 0.00in /  0mm 0.0 W/m2
19:19 57.4 °F /  14.1 °C 33.3 °F /  0.7 °C 30.28in /  1025.3hPa Calm   2.0mph /  3.2km/h 40% 0.00in /  0mm 0.0 W/m2
19:25 56.8 °F /  13.8 °C 33.4 °F /  0.8 °C 30.28in /  1025.3hPa Calm   1.0mph /  1.6km/h 41% 0.00in /  0mm 0.0 W/m2
19:31 56.7 °F /  13.7 °C 33.3 °F /  0.7 °C 30.29in /  1025.6hPa Calm   1.0mph /  1.6km/h 41% 0.00in /  0mm 0.0 W/m2
19:37 56.1 °F /  13.4 °C 32.7 °F /  0.4 °C 30.29in /  1025.6hPa Calm   1.0mph /  1.6km/h 41% 0.00in /  0mm 0.0 W/m2
19:43 55.8 °F /  13.2 °C 33.1 °F /  0.6 °C 30.29in /  1025.6hPa Calm     42% 0.00in /  0mm 0.0 W/m2
19:49 55.6 °F /  13.1 °C 32.9 °F /  0.5 °C 30.29in /  1025.6hPa Calm     42% 0.00in /  0mm 0.0 W/m2
19:55 55.0 °F /  12.8 °C 32.9 °F /  0.5 °C 30.30in /  1026hPa East 0.9mph /  1.4km/h 1.0mph /  1.6km/h 43% 0.00in /  0mm 0.0 W/m2
20:02 54.9 °F /  12.7 °C 32.7 °F /  0.4 °C 30.30in /  1026hPa Calm     43% 0.00in /  0mm 0.0 W/m2
20:08 54.7 °F /  12.6 °C 32.5 °F /  0.3 °C 30.30in /  1026hPa Calm   2.0mph /  3.2km/h 43% 0.00in /  0mm 0.0 W/m2
20:14 54.5 °F /  12.5 °C 33.1 °F /  0.6 °C 30.30in /  1026hPa Calm     44% 0.00in /  0mm 0.0 W/m2
20:26 54.3 °F /  12.4 °C 32.9 °F /  0.5 °C 30.30in /  1026hPa Calm   1.0mph /  1.6km/h 44% 0.00in /  0mm 0.0 W/m2
20:32 54.1 °F /  12.3 °C 33.3 °F /  0.7 °C 30.30in /  1026hPa Calm   1.0mph /  1.6km/h 45% 0.00in /  0mm 0.0 W/m2
20:39 54.0 °F /  12.2 °C 33.1 °F /  0.6 °C 30.30in /  1026hPa Calm   1.0mph /  1.6km/h 45% 0.00in /  0mm 0.0 W/m2
20:45 53.8 °F /  12.1 °C 32.9 °F /  0.5 °C 30.31in /  1026.3hPa Calm   1.0mph /  1.6km/h 45% 0.00in /  0mm 0.0 W/m2
20:51 53.8 °F /  12.1 °C 32.9 °F /  0.5 °C 30.31in /  1026.3hPa Calm     45% 0.00in /  0mm 0.0 W/m2
20:57 53.4 °F /  11.9 °C 33.1 °F /  0.6 °C 30.31in /  1026.3hPa Calm     46% 0.00in /  0mm 0.0 W/m2
21:03 53.2 °F /  11.8 °C 33.1 °F /  0.6 °C 30.31in /  1026.3hPa Calm   1.0mph /  1.6km/h 46% 0.00in /  0mm 0.0 W/m2
21:09 53.1 °F /  11.7 °C 32.9 °F /  0.5 °C 30.31in /  1026.3hPa Calm   2.0mph /  3.2km/h 46% 0.00in /  0mm 0.0 W/m2
21:15 53.1 °F /  11.7 °C 32.9 °F /  0.5 °C 30.31in /  1026.3hPa Calm     46% 0.00in /  0mm 0.0 W/m2
21:21 52.9 °F /  11.6 °C 33.3 °F /  0.7 °C 30.31in /  1026.3hPa Calm     47% 0.00in /  0mm 0.0 W/m2
21:27 52.5 °F /  11.4 °C 32.9 °F /  0.5 °C 30.31in /  1026.3hPa Calm     47% 0.00in /  0mm 0.0 W/m2
21:34 52.3 °F /  11.3 °C 32.7 °F /  0.4 °C 30.31in /  1026.3hPa Calm     47% 0.00in /  0mm 0.0 W/m2
21:40 52.2 °F /  11.2 °C 33.1 °F /  0.6 °C 30.31in /  1026.3hPa Calm     48% 0.00in /  0mm 0.0 W/m2
21:46 52.0 °F /  11.1 °C 32.9 °F /  0.5 °C 30.31in /  1026.3hPa Calm     48% 0.00in /  0mm 0.0 W/m2
21:52 52.0 °F /  11.1 °C 33.4 °F /  0.8 °C 30.32in /  1026.6hPa Calm     49% 0.00in /  0mm 0.0 W/m2
21:58 51.8 °F /  11 °C 33.3 °F /  0.7 °C 30.31in /  1026.3hPa Calm     49% 0.00in /  0mm 0.0 W/m2
22:04 51.4 °F /  10.8 °C 32.9 °F /  0.5 °C 30.31in /  1026.3hPa Calm     49% 0.00in /  0mm 0.0 W/m2
22:11 51.3 °F /  10.7 °C 32.7 °F /  0.4 °C 30.31in /  1026.3hPa Calm     49% 0.00in /  0mm 0.0 W/m2
22:17 51.1 °F /  10.6 °C 33.1 °F /  0.6 °C 30.32in /  1026.6hPa Calm     50% 0.00in /  0mm 0.0 W/m2
22:23 50.9 °F /  10.5 °C 32.9 °F /  0.5 °C 30.32in /  1026.6hPa Calm     50% 0.00in /  0mm 0.0 W/m2
22:29 50.7 °F /  10.4 °C 33.3 °F /  0.7 °C 30.32in /  1026.6hPa Calm     51% 0.00in /  0mm 0.0 W/m2
22:35 50.4 °F /  10.2 °C 32.9 °F /  0.5 °C 30.32in /  1026.6hPa Calm     51% 0.00in /  0mm 0.0 W/m2
22:41 50.2 °F /  10.1 °C 32.7 °F /  0.4 °C 30.32in /  1026.6hPa Calm     51% 0.00in /  0mm 0.0 W/m2
22:47 49.8 °F /  9.9 °C 32.4 °F /  0.2 °C 30.32in /  1026.6hPa Calm     51% 0.00in /  0mm 0.0 W/m2
22:53 49.6 °F /  9.8 °C 32.7 °F /  0.4 °C 30.31in /  1026.3hPa Calm     52% 0.00in /  0mm 0.0 W/m2
22:59 49.3 °F /  9.6 °C 32.4 °F /  0.2 °C 30.31in /  1026.3hPa Calm     52% 0.00in /  0mm 0.0 W/m2
23:05 49.3 °F /  9.6 °C 32.4 °F /  0.2 °C 30.31in /  1026.3hPa Calm     52% 0.00in /  0mm 0.0 W/m2
23:11 49.1 °F /  9.5 °C 32.7 °F /  0.4 °C 30.31in /  1026.3hPa Calm     53% 0.00in /  0mm 0.0 W/m2
23:17 48.9 °F /  9.4 °C 32.5 °F /  0.3 °C 30.31in /  1026.3hPa Calm     53% 0.00in /  0mm 0.0 W/m2
23:23 49.3 °F /  9.6 °C 33.3 °F /  0.7 °C 30.31in /  1026.3hPa Calm   1.0mph /  1.6km/h 54% 0.00in /  0mm 0.0 W/m2
23:29 49.3 °F /  9.6 °C 32.9 °F /  0.5 °C 30.31in /  1026.3hPa NE 0.9mph /  1.4km/h 1.0mph /  1.6km/h 53% 0.00in /  0mm 0.0 W/m2
23:35 49.5 °F /  9.7 °C 33.1 °F /  0.6 °C 30.31in /  1026.3hPa Calm   2.0mph /  3.2km/h 53% 0.00in /  0mm 0.0 W/m2
23:41 49.6 °F /  9.8 °C 32.7 °F /  0.4 °C 30.31in /  1026.3hPa Calm   1.0mph /  1.6km/h 52% 0.00in /  0mm 0.0 W/m2
23:47 49.6 °F /  9.8 °C 32.7 °F /  0.4 °C 30.31in /  1026.3hPa NE 0.9mph /  1.4km/h 1.0mph /  1.6km/h 52% 0.00in /  0mm 0.0 W/m2
23:53 49.6 °F /  9.8 °C 32.7 °F /  0.4 °C 30.31in /  1026.3hPa Calm   2.0mph /  3.2km/h 52% 0.00in /  0mm 0.0 W/m2
23:59 49.6 °F /  9.8 °C 32.7 °F /  0.4 °C 30.31in /  1026.3hPa Calm     52% 0.00in /  0mm 0.0 W/m2
Olympia, Windhoek, Namibia
Compliments of Weather Underground - 3 mb